aviador You're here:

RJFK Decoded Metar

KAGOSHIMA in JAPAN
Report Time2017-12-17 05:00:00
UTC Time2017-12-17 05:54:10
Flight Rules vfr VFR
Wind340° at 15 kt
W.Decomp.*RWY 34: 14.9 kt HW 1.3 kt RCW
W.Rank340° ranks 2
Current wind is above 340° avg. (7.3)
Visibility9999 m
Phenomena:N/A
Clouds:Few 040 Hf
Expected CloudBase > 4,000 ft AGL from Temp-Dew spread
CeilingNone
Temp04°C (ISA -9)
Dew Point-6°C (48% RH)
AAT-4.1°C
QNH1023 hPa
Density Alt-492 ft
Elevation902 ft
Report Wrong Elevation
Raw Report
RJFK 170500Z 34015KT 9999 FEW040 04/M06 Q1023 RMK 1CU040 A3023=

Extra information for RJFK:More info

Metar Taf Metar & Taf Last 4 Metars F.Rules Stats Wind Profile Meteogram Temp Stats Airport Information Weather charts Add Link Nearby VenuesMetar ALERT Operation Metar Decoded Social comments